sensor_id;sensor_type;location;lat;lon;timestamp;temperature;humidity
36374;DHT22;22399;51.346;12.372;2023-11-21T00:00:13;7.40;99.90
36374;DHT22;22399;51.346;12.372;2023-11-21T00:02:42;7.30;99.90
36374;DHT22;22399;51.346;12.372;2023-11-21T00:05:11;7.30;99.90
36374;DHT22;22399;51.346;12.372;2023-11-21T00:07:41;7.30;99.90
36374;DHT22;22399;51.346;12.372;2023-11-21T00:10:11;7.30;99.90
36374;DHT22;22399;51.346;12.372;2023-11-21T00:12:43;7.20;99.90
36374;DHT22;22399;51.346;12.372;2023-11-21T00:15:11;7.20;99.90
36374;DHT22;22399;51.346;12.372;2023-11-21T00:17:40;7.20;99.90
36374;DHT22;22399;51.346;12.372;2023-11-21T00:20:10;7.20;99.90
36374;DHT22;22399;51.346;12.372;2023-11-21T00:22:41;7.10;99.90
36374;DHT22;22399;51.346;12.372;2023-11-21T00:25:10;7.10;99.90
36374;DHT22;22399;51.346;12.372;2023-11-21T00:27:39;7.00;99.90
36374;DHT22;22399;51.346;12.372;2023-11-21T00:30:09;7.00;99.90
36374;DHT22;22399;51.346;12.372;2023-11-21T00:32:38;7.00;99.90
36374;DHT22;22399;51.346;12.372;2023-11-21T00:35:07;7.00;99.90
36374;DHT22;22399;51.346;12.372;2023-11-21T00:37:36;7.00;99.90
36374;DHT22;22399;51.346;12.372;2023-11-21T00:40:07;6.90;99.90
36374;DHT22;22399;51.346;12.372;2023-11-21T00:42:36;6.90;99.90
36374;DHT22;22399;51.346;12.372;2023-11-21T00:45:06;6.90;99.90
36374;DHT22;22399;51.346;12.372;2023-11-21T00:47:36;6.90;99.90
36374;DHT22;22399;51.346;12.372;2023-11-21T00:50:07;6.80;99.90
36374;DHT22;22399;51.346;12.372;2023-11-21T00:52:36;6.80;99.90
36374;DHT22;22399;51.346;12.372;2023-11-21T00:55:06;6.80;99.90
36374;DHT22;22399;51.346;12.372;2023-11-21T00:57:35;6.80;99.90
36374;DHT22;22399;51.346;12.372;2023-11-21T01:00:06;6.80;99.90
36374;DHT22;22399;51.346;12.372;2023-11-21T01:02:42;6.80;99.90
36374;DHT22;22399;51.346;12.372;2023-11-21T01:05:11;6.80;99.90
36374;DHT22;22399;51.346;12.372;2023-11-21T01:07:40;6.70;99.90
36374;DHT22;22399;51.346;12.372;2023-11-21T01:10:09;6.70;99.90
36374;DHT22;22399;51.346;12.372;2023-11-21T01:12:38;6.70;99.90
36374;DHT22;22399;51.346;12.372;2023-11-21T01:15:07;6.70;99.90
36374;DHT22;22399;51.346;12.372;2023-11-21T01:17:36;6.70;99.90
36374;DHT22;22399;51.346;12.372;2023-11-21T01:20:08;6.80;99.90
36374;DHT22;22399;51.346;12.372;2023-11-21T01:22:39;6.90;99.90
36374;DHT22;22399;51.346;12.372;2023-11-21T01:25:08;7.00;99.90
36374;DHT22;22399;51.346;12.372;2023-11-21T01:27:38;7.10;99.90
36374;DHT22;22399;51.346;12.372;2023-11-21T01:30:07;7.20;99.90
36374;DHT22;22399;51.346;12.372;2023-11-21T01:32:38;7.30;99.90
36374;DHT22;22399;51.346;12.372;2023-11-21T01:35:09;7.40;99.90
36374;DHT22;22399;51.346;12.372;2023-11-21T01:37:38;7.50;99.90
36374;DHT22;22399;51.346;12.372;2023-11-21T01:40:08;7.50;99.90
36374;DHT22;22399;51.346;12.372;2023-11-21T01:42:42;7.60;99.90
36374;DHT22;22399;51.346;12.372;2023-11-21T01:45:12;7.60;99.90
36374;DHT22;22399;51.346;12.372;2023-11-21T01:47:41;7.70;99.90
36374;DHT22;22399;51.346;12.372;2023-11-21T01:50:14;7.70;99.90
36374;DHT22;22399;51.346;12.372;2023-11-21T01:52:45;7.80;99.90
36374;DHT22;22399;51.346;12.372;2023-11-21T01:55:16;7.80;99.90
36374;DHT22;22399;51.346;12.372;2023-11-21T01:57:56;7.80;99.90
36374;DHT22;22399;51.346;12.372;2023-11-21T02:00:24;7.90;99.90
36374;DHT22;22399;51.346;12.372;2023-11-21T02:02:56;7.90;99.90
36374;DHT22;22399;51.346;12.372;2023-11-21T02:05:27;8.00;99.90
36374;DHT22;22399;51.346;12.372;2023-11-21T02:07:58;8.00;99.90
36374;DHT22;22399;51.346;12.372;2023-11-21T02:10:28;8.00;99.90
36374;DHT22;22399;51.346;12.372;2023-11-21T02:12:58;8.00;99.90
36374;DHT22;22399;51.346;12.372;2023-11-21T02:15:30;8.10;99.90
36374;DHT22;22399;51.346;12.372;2023-11-21T02:17:58;8.10;99.90
36374;DHT22;22399;51.346;12.372;2023-11-21T02:20:33;8.10;99.90
36374;DHT22;22399;51.346;12.372;2023-11-21T02:23:05;8.10;99.90
36374;DHT22;22399;51.346;12.372;2023-11-21T02:25:33;8.10;99.90
36374;DHT22;22399;51.346;12.372;2023-11-21T02:28:04;8.10;99.90
36374;DHT22;22399;51.346;12.372;2023-11-21T02:30:35;8.10;99.90
36374;DHT22;22399;51.346;12.372;2023-11-21T02:33:04;8.10;99.90
36374;DHT22;22399;51.346;12.372;2023-11-21T02:35:33;8.10;99.90
36374;DHT22;22399;51.346;12.372;2023-11-21T02:38:02;8.10;99.90
36374;DHT22;22399;51.346;12.372;2023-11-21T02:40:32;8.10;99.90
36374;DHT22;22399;51.346;12.372;2023-11-21T02:43:00;8.10;99.90
36374;DHT22;22399;51.346;12.372;2023-11-21T02:45:29;8.10;99.90
36374;DHT22;22399;51.346;12.372;2023-11-21T02:47:57;8.00;99.90
36374;DHT22;22399;51.346;12.372;2023-11-21T02:50:26;8.00;99.90
36374;DHT22;22399;51.346;12.372;2023-11-21T02:52:55;8.00;99.90
36374;DHT22;22399;51.346;12.372;2023-11-21T02:55:25;7.80;99.90
36374;DHT22;22399;51.346;12.372;2023-11-21T02:57:55;7.70;99.90
36374;DHT22;22399;51.346;12.372;2023-11-21T03:00:24;7.60;99.90
36374;DHT22;22399;51.346;12.372;2023-11-21T03:02:55;7.50;99.90
36374;DHT22;22399;51.346;12.372;2023-11-21T03:05:25;7.30;99.90
36374;DHT22;22399;51.346;12.372;2023-11-21T03:07:54;7.20;99.90
36374;DHT22;22399;51.346;12.372;2023-11-21T03:10:22;7.20;99.90
36374;DHT22;22399;51.346;12.372;2023-11-21T03:12:51;7.20;99.90
36374;DHT22;22399;51.346;12.372;2023-11-21T03:15:21;7.10;99.90
36374;DHT22;22399;51.346;12.372;2023-11-21T03:17:50;7.10;99.90
36374;DHT22;22399;51.346;12.372;2023-11-21T03:20:19;7.10;99.90
36374;DHT22;22399;51.346;12.372;2023-11-21T03:22:47;7.10;99.90
36374;DHT22;22399;51.346;12.372;2023-11-21T03:25:15;7.20;99.90
36374;DHT22;22399;51.346;12.372;2023-11-21T03:27:45;7.20;99.90
36374;DHT22;22399;51.346;12.372;2023-11-21T03:30:14;7.20;99.90
36374;DHT22;22399;51.346;12.372;2023-11-21T03:32:45;7.30;99.90
36374;DHT22;22399;51.346;12.372;2023-11-21T03:35:14;7.30;99.90
36374;DHT22;22399;51.346;12.372;2023-11-21T03:37:43;7.30;99.90
36374;DHT22;22399;51.346;12.372;2023-11-21T03:40:12;7.40;99.90
36374;DHT22;22399;51.346;12.372;2023-11-21T03:42:41;7.50;99.90
36374;DHT22;22399;51.346;12.372;2023-11-21T03:45:10;7.50;99.90
36374;DHT22;22399;51.346;12.372;2023-11-21T03:47:40;7.60;99.90
36374;DHT22;22399;51.346;12.372;2023-11-21T03:50:10;7.60;99.90
36374;DHT22;22399;51.346;12.372;2023-11-21T03:52:39;7.70;99.90
36374;DHT22;22399;51.346;12.372;2023-11-21T03:55:08;7.70;99.90
36374;DHT22;22399;51.346;12.372;2023-11-21T03:57:41;7.70;99.90
36374;DHT22;22399;51.346;12.372;2023-11-21T04:00:10;7.70;99.90
36374;DHT22;22399;51.346;12.372;2023-11-21T04:02:39;7.70;99.90
36374;DHT22;22399;51.346;12.372;2023-11-21T04:05:09;7.70;99.90
36374;DHT22;22399;51.346;12.372;2023-11-21T04:07:37;7.70;99.90
36374;DHT22;22399;51.346;12.372;2023-11-21T04:10:08;7.70;99.90
36374;DHT22;22399;51.346;12.372;2023-11-21T04:12:39;7.70;99.90
36374;DHT22;22399;51.346;12.372;2023-11-21T04:15:08;7.70;99.90
36374;DHT22;22399;51.346;12.372;2023-11-21T04:17:37;7.70;99.90
36374;DHT22;22399;51.346;12.372;2023-11-21T04:20:07;7.80;99.90
36374;DHT22;22399;51.346;12.372;2023-11-21T04:22:39;7.80;99.90
36374;DHT22;22399;51.346;12.372;2023-11-21T04:25:13;7.80;99.90
36374;DHT22;22399;51.346;12.372;2023-11-21T04:27:43;7.80;99.90
36374;DHT22;22399;51.346;12.372;2023-11-21T04:30:13;7.80;99.90
36374;DHT22;22399;51.346;12.372;2023-11-21T04:32:42;7.80;99.90
36374;DHT22;22399;51.346;12.372;2023-11-21T04:35:10;7.80;99.90
36374;DHT22;22399;51.346;12.372;2023-11-21T04:37:40;7.90;99.90
36374;DHT22;22399;51.346;12.372;2023-11-21T04:40:10;7.90;99.90
36374;DHT22;22399;51.346;12.372;2023-11-21T04:42:38;7.90;99.90
36374;DHT22;22399;51.346;12.372;2023-11-21T04:45:08;7.90;99.90
36374;DHT22;22399;51.346;12.372;2023-11-21T04:47:40;8.00;99.90
36374;DHT22;22399;51.346;12.372;2023-11-21T04:50:09;7.90;99.90
36374;DHT22;22399;51.346;12.372;2023-11-21T04:52:39;8.00;99.90
36374;DHT22;22399;51.346;12.372;2023-11-21T04:55:08;7.90;99.90
36374;DHT22;22399;51.346;12.372;2023-11-21T04:57:38;8.00;99.90
36374;DHT22;22399;51.346;12.372;2023-11-21T05:00:10;8.00;99.90
36374;DHT22;22399;51.346;12.372;2023-11-21T05:02:40;8.00;99.90
36374;DHT22;22399;51.346;12.372;2023-11-21T05:05:09;8.10;99.90
36374;DHT22;22399;51.346;12.372;2023-11-21T05:07:40;8.00;99.90
36374;DHT22;22399;51.346;12.372;2023-11-21T05:10:10;8.10;99.90
36374;DHT22;22399;51.346;12.372;2023-11-21T05:12:40;8.10;99.90
36374;DHT22;22399;51.346;12.372;2023-11-21T05:15:09;8.10;99.90
36374;DHT22;22399;51.346;12.372;2023-11-21T05:17:39;8.20;99.90
36374;DHT22;22399;51.346;12.372;2023-11-21T05:20:09;8.20;99.90
36374;DHT22;22399;51.346;12.372;2023-11-21T05:22:40;8.20;99.90
36374;DHT22;22399;51.346;12.372;2023-11-21T05:25:09;8.10;99.90
36374;DHT22;22399;51.346;12.372;2023-11-21T05:27:38;8.10;99.90
36374;DHT22;22399;51.346;12.372;2023-11-21T05:30:08;8.00;99.90
36374;DHT22;22399;51.346;12.372;2023-11-21T05:32:39;8.00;99.90
36374;DHT22;22399;51.346;12.372;2023-11-21T05:35:09;8.00;99.90
36374;DHT22;22399;51.346;12.372;2023-11-21T05:37:43;7.90;99.90
36374;DHT22;22399;51.346;12.372;2023-11-21T05:40:13;7.90;99.90
36374;DHT22;22399;51.346;12.372;2023-11-21T05:42:41;7.90;99.90
36374;DHT22;22399;51.346;12.372;2023-11-21T05:45:10;7.80;99.90
36374;DHT22;22399;51.346;12.372;2023-11-21T05:47:41;7.80;99.90
36374;DHT22;22399;51.346;12.372;2023-11-21T05:50:11;7.80;99.90
36374;DHT22;22399;51.346;12.372;2023-11-21T05:52:44;7.80;99.90
36374;DHT22;22399;51.346;12.372;2023-11-21T05:55:13;7.80;99.90
36374;DHT22;22399;51.346;12.372;2023-11-21T05:57:43;7.70;99.90
36374;DHT22;22399;51.346;12.372;2023-11-21T06:00:13;7.80;99.90
36374;DHT22;22399;51.346;12.372;2023-11-21T06:02:48;7.70;99.90
36374;DHT22;22399;51.346;12.372;2023-11-21T06:05:21;7.70;99.90
36374;DHT22;22399;51.346;12.372;2023-11-21T06:07:53;7.70;99.90
36374;DHT22;22399;51.346;12.372;2023-11-21T06:10:23;7.70;99.90
36374;DHT22;22399;51.346;12.372;2023-11-21T06:12:53;7.60;99.90
36374;DHT22;22399;51.346;12.372;2023-11-21T06:15:22;7.70;99.90
36374;DHT22;22399;51.346;12.372;2023-11-21T06:17:51;7.70;99.90
36374;DHT22;22399;51.346;12.372;2023-11-21T06:20:21;7.70;99.90
36374;DHT22;22399;51.346;12.372;2023-11-21T06:22:53;7.70;99.90
36374;DHT22;22399;51.346;12.372;2023-11-21T06:25:21;7.70;99.90
36374;DHT22;22399;51.346;12.372;2023-11-21T06:27:50;7.70;99.90
36374;DHT22;22399;51.346;12.372;2023-11-21T06:30:21;7.70;99.90
36374;DHT22;22399;51.346;12.372;2023-11-21T06:32:50;7.70;99.90
36374;DHT22;22399;51.346;12.372;2023-11-21T06:35:20;7.70;99.90
36374;DHT22;22399;51.346;12.372;2023-11-21T06:37:49;7.70;99.90
36374;DHT22;22399;51.346;12.372;2023-11-21T06:40:20;7.70;99.90
36374;DHT22;22399;51.346;12.372;2023-11-21T06:42:49;7.70;99.90
36374;DHT22;22399;51.346;12.372;2023-11-21T06:45:18;7.70;99.90
36374;DHT22;22399;51.346;12.372;2023-11-21T06:47:47;7.70;99.90
36374;DHT22;22399;51.346;12.372;2023-11-21T06:50:17;7.70;99.90
36374;DHT22;22399;51.346;12.372;2023-11-21T06:52:46;7.60;99.90
36374;DHT22;22399;51.346;12.372;2023-11-21T06:55:14;7.60;99.90
36374;DHT22;22399;51.346;12.372;2023-11-21T06:57:44;7.70;99.90
36374;DHT22;22399;51.346;12.372;2023-11-21T07:00:15;7.60;99.90
36374;DHT22;22399;51.346;12.372;2023-11-21T07:02:45;7.70;99.90
36374;DHT22;22399;51.346;12.372;2023-11-21T07:05:14;7.70;99.90
36374;DHT22;22399;51.346;12.372;2023-11-21T07:07:42;7.70;99.90
36374;DHT22;22399;51.346;12.372;2023-11-21T07:10:11;7.70;99.90
36374;DHT22;22399;51.346;12.372;2023-11-21T07:12:40;7.70;99.90
36374;DHT22;22399;51.346;12.372;2023-11-21T07:15:10;7.70;99.90
36374;DHT22;22399;51.346;12.372;2023-11-21T07:17:41;7.70;99.90
36374;DHT22;22399;51.346;12.372;2023-11-21T07:20:11;7.70;99.90
36374;DHT22;22399;51.346;12.372;2023-11-21T07:22:40;7.70;99.90
36374;DHT22;22399;51.346;12.372;2023-11-21T07:25:09;7.70;99.90
36374;DHT22;22399;51.346;12.372;2023-11-21T07:27:37;7.70;99.90
36374;DHT22;22399;51.346;12.372;2023-11-21T07:30:07;7.70;99.90
36374;DHT22;22399;51.346;12.372;2023-11-21T07:32:39;7.70;99.90
36374;DHT22;22399;51.346;12.372;2023-11-21T07:35:08;7.70;99.90
36374;DHT22;22399;51.346;12.372;2023-11-21T07:37:37;7.70;99.90
36374;DHT22;22399;51.346;12.372;2023-11-21T07:40:07;7.70;99.90
36374;DHT22;22399;51.346;12.372;2023-11-21T07:42:38;7.70;99.90
36374;DHT22;22399;51.346;12.372;2023-11-21T07:45:07;7.80;99.90
36374;DHT22;22399;51.346;12.372;2023-11-21T07:47:36;7.80;99.90
36374;DHT22;22399;51.346;12.372;2023-11-21T07:50:09;7.80;99.90
36374;DHT22;22399;51.346;12.372;2023-11-21T07:52:37;7.80;99.90
36374;DHT22;22399;51.346;12.372;2023-11-21T07:55:06;7.80;99.90
36374;DHT22;22399;51.346;12.372;2023-11-21T07:57:35;7.90;99.90
36374;DHT22;22399;51.346;12.372;2023-11-21T08:00:05;7.90;99.90
36374;DHT22;22399;51.346;12.372;2023-11-21T08:02:39;7.90;99.90
36374;DHT22;22399;51.346;12.372;2023-11-21T08:05:11;7.90;99.90
36374;DHT22;22399;51.346;12.372;2023-11-21T08:07:51;7.80;99.90
36374;DHT22;22399;51.346;12.372;2023-11-21T08:10:19;7.80;99.90
36374;DHT22;22399;51.346;12.372;2023-11-21T08:12:49;7.70;99.90
36374;DHT22;22399;51.346;12.372;2023-11-21T08:15:18;7.70;99.90
36374;DHT22;22399;51.346;12.372;2023-11-21T08:17:47;7.70;99.90
36374;DHT22;22399;51.346;12.372;2023-11-21T08:20:17;7.60;99.90
36374;DHT22;22399;51.346;12.372;2023-11-21T08:22:46;7.60;99.90
36374;DHT22;22399;51.346;12.372;2023-11-21T08:25:15;7.60;99.90
36374;DHT22;22399;51.346;12.372;2023-11-21T08:27:47;7.60;99.90
36374;DHT22;22399;51.346;12.372;2023-11-21T08:30:16;7.60;99.90
36374;DHT22;22399;51.346;12.372;2023-11-21T08:32:47;7.70;99.90
36374;DHT22;22399;51.346;12.372;2023-11-21T08:35:17;7.70;99.90
36374;DHT22;22399;51.346;12.372;2023-11-21T08:37:45;7.80;99.90
36374;DHT22;22399;51.346;12.372;2023-11-21T08:40:14;7.80;99.90
36374;DHT22;22399;51.346;12.372;2023-11-21T08:42:44;7.80;99.90
36374;DHT22;22399;51.346;12.372;2023-11-21T08:45:14;7.80;99.90
36374;DHT22;22399;51.346;12.372;2023-11-21T08:47:42;7.80;99.90
36374;DHT22;22399;51.346;12.372;2023-11-21T08:50:12;7.70;99.90
36374;DHT22;22399;51.346;12.372;2023-11-21T08:52:42;7.70;99.90
36374;DHT22;22399;51.346;12.372;2023-11-21T08:55:10;7.70;99.90
36374;DHT22;22399;51.346;12.372;2023-11-21T08:57:41;7.70;99.90
36374;DHT22;22399;51.346;12.372;2023-11-21T09:00:12;7.60;99.90
36374;DHT22;22399;51.346;12.372;2023-11-21T09:02:44;7.60;99.90
36374;DHT22;22399;51.346;12.372;2023-11-21T09:05:13;7.60;99.90
36374;DHT22;22399;51.346;12.372;2023-11-21T09:07:44;7.60;99.90
36374;DHT22;22399;51.346;12.372;2023-11-21T09:10:13;7.60;99.90
36374;DHT22;22399;51.346;12.372;2023-11-21T09:12:41;7.60;99.90
36374;DHT22;22399;51.346;12.372;2023-11-21T09:15:10;7.50;99.90
36374;DHT22;22399;51.346;12.372;2023-11-21T09:17:39;7.40;99.90
36374;DHT22;22399;51.346;12.372;2023-11-21T09:20:09;7.50;99.90
36374;DHT22;22399;51.346;12.372;2023-11-21T09:22:38;7.50;99.90
36374;DHT22;22399;51.346;12.372;2023-11-21T09:25:10;7.50;99.90
36374;DHT22;22399;51.346;12.372;2023-11-21T09:27:38;7.50;99.90
36374;DHT22;22399;51.346;12.372;2023-11-21T09:30:07;7.50;99.90
36374;DHT22;22399;51.346;12.372;2023-11-21T09:32:37;7.40;99.90
36374;DHT22;22399;51.346;12.372;2023-11-21T09:35:08;7.40;99.90
36374;DHT22;22399;51.346;12.372;2023-11-21T09:37:37;7.50;99.90
36374;DHT22;22399;51.346;12.372;2023-11-21T09:40:11;7.50;99.90
36374;DHT22;22399;51.346;12.372;2023-11-21T09:42:49;7.40;99.90
36374;DHT22;22399;51.346;12.372;2023-11-21T09:45:23;7.40;99.90
36374;DHT22;22399;51.346;12.372;2023-11-21T09:47:53;7.40;99.90
36374;DHT22;22399;51.346;12.372;2023-11-21T09:50:23;7.40;99.90
36374;DHT22;22399;51.346;12.372;2023-11-21T09:53:03;7.30;99.90
36374;DHT22;22399;51.346;12.372;2023-11-21T09:55:37;7.30;99.90
36374;DHT22;22399;51.346;12.372;2023-11-21T09:58:09;7.30;99.90
36374;DHT22;22399;51.346;12.372;2023-11-21T10:00:40;7.30;99.90
36374;DHT22;22399;51.346;12.372;2023-11-21T10:03:10;7.30;99.90
36374;DHT22;22399;51.346;12.372;2023-11-21T10:05:39;7.30;99.90
36374;DHT22;22399;51.346;12.372;2023-11-21T10:08:09;7.20;99.90
36374;DHT22;22399;51.346;12.372;2023-11-21T10:10:43;7.20;99.90
36374;DHT22;22399;51.346;12.372;2023-11-21T10:13:13;7.30;99.90
36374;DHT22;22399;51.346;12.372;2023-11-21T10:15:50;7.30;99.90
36374;DHT22;22399;51.346;12.372;2023-11-21T10:18:20;7.30;99.90
36374;DHT22;22399;51.346;12.372;2023-11-21T10:20:54;7.40;99.90
36374;DHT22;22399;51.346;12.372;2023-11-21T10:23:24;7.40;99.90
36374;DHT22;22399;51.346;12.372;2023-11-21T10:25:54;7.30;99.90
36374;DHT22;22399;51.346;12.372;2023-11-21T10:28:30;7.20;99.90
36374;DHT22;22399;51.346;12.372;2023-11-21T10:31:06;7.10;99.90
36374;DHT22;22399;51.346;12.372;2023-11-21T10:33:35;7.10;99.90
36374;DHT22;22399;51.346;12.372;2023-11-21T10:36:04;7.10;99.90
36374;DHT22;22399;51.346;12.372;2023-11-21T10:38:35;7.10;99.90
36374;DHT22;22399;51.346;12.372;2023-11-21T10:41:13;7.10;99.90
36374;DHT22;22399;51.346;12.372;2023-11-21T10:43:43;7.20;99.90
36374;DHT22;22399;51.346;12.372;2023-11-21T10:46:13;7.40;99.90
36374;DHT22;22399;51.346;12.372;2023-11-21T10:48:42;7.50;99.90
36374;DHT22;22399;51.346;12.372;2023-11-21T10:51:11;7.60;99.90
36374;DHT22;22399;51.346;12.372;2023-11-21T10:53:40;7.70;99.90
36374;DHT22;22399;51.346;12.372;2023-11-21T10:56:14;7.60;99.90
36374;DHT22;22399;51.346;12.372;2023-11-21T10:58:45;7.40;99.90
36374;DHT22;22399;51.346;12.372;2023-11-21T11:01:17;7.40;99.90
36374;DHT22;22399;51.346;12.372;2023-11-21T11:03:48;7.40;99.90
36374;DHT22;22399;51.346;12.372;2023-11-21T11:06:17;7.30;99.90
36374;DHT22;22399;51.346;12.372;2023-11-21T11:08:47;7.30;99.90
36374;DHT22;22399;51.346;12.372;2023-11-21T11:11:17;7.30;99.90
36374;DHT22;22399;51.346;12.372;2023-11-21T11:13:47;7.20;99.90
36374;DHT22;22399;51.346;12.372;2023-11-21T11:16:16;7.20;99.90
36374;DHT22;22399;51.346;12.372;2023-11-21T11:18:45;7.30;99.90
36374;DHT22;22399;51.346;12.372;2023-11-21T11:21:27;7.40;99.90
36374;DHT22;22399;51.346;12.372;2023-11-21T11:24:27;7.40;99.90
36374;DHT22;22399;51.346;12.372;2023-11-21T11:27:10;7.30;99.90
36374;DHT22;22399;51.346;12.372;2023-11-21T11:29:43;7.20;99.90
36374;DHT22;22399;51.346;12.372;2023-11-21T11:32:34;7.20;99.90
36374;DHT22;22399;51.346;12.372;2023-11-21T11:35:11;7.20;99.90
36374;DHT22;22399;51.346;12.372;2023-11-21T11:37:43;7.10;99.90
36374;DHT22;22399;51.346;12.372;2023-11-21T11:40:12;7.10;99.90
36374;DHT22;22399;51.346;12.372;2023-11-21T11:42:56;7.10;99.90
36374;DHT22;22399;51.346;12.372;2023-11-21T11:45:32;7.10;99.90
36374;DHT22;22399;51.346;12.372;2023-11-21T11:48:01;7.00;99.90
36374;DHT22;22399;51.346;12.372;2023-11-21T11:50:31;7.00;99.90
36374;DHT22;22399;51.346;12.372;2023-11-21T11:53:12;7.00;99.90
36374;DHT22;22399;51.346;12.372;2023-11-21T11:55:41;6.90;99.90
36374;DHT22;22399;51.346;12.372;2023-11-21T11:58:11;6.90;99.90
36374;DHT22;22399;51.346;12.372;2023-11-21T12:00:39;6.80;99.90
36374;DHT22;22399;51.346;12.372;2023-11-21T12:03:09;6.70;99.90
36374;DHT22;22399;51.346;12.372;2023-11-21T12:05:37;6.60;99.90
36374;DHT22;22399;51.346;12.372;2023-11-21T12:08:07;6.60;99.90
36374;DHT22;22399;51.346;12.372;2023-11-21T12:10:38;6.50;99.90
36374;DHT22;22399;51.346;12.372;2023-11-21T12:13:08;6.50;99.90
36374;DHT22;22399;51.346;12.372;2023-11-21T12:15:39;6.40;99.90
36374;DHT22;22399;51.346;12.372;2023-11-21T12:18:09;6.30;99.90
36374;DHT22;22399;51.346;12.372;2023-11-21T12:20:38;6.30;99.90
36374;DHT22;22399;51.346;12.372;2023-11-21T12:23:08;6.30;99.90
36374;DHT22;22399;51.346;12.372;2023-11-21T12:25:38;6.30;99.90
36374;DHT22;22399;51.346;12.372;2023-11-21T12:28:09;6.30;99.90
36374;DHT22;22399;51.346;12.372;2023-11-21T12:30:40;6.20;99.90
36374;DHT22;22399;51.346;12.372;2023-11-21T12:33:09;6.10;99.90
36374;DHT22;22399;51.346;12.372;2023-11-21T12:35:40;6.10;99.90
36374;DHT22;22399;51.346;12.372;2023-11-21T12:38:10;6.00;99.90
36374;DHT22;22399;51.346;12.372;2023-11-21T12:40:39;5.90;99.90
36374;DHT22;22399;51.346;12.372;2023-11-21T12:43:07;5.90;99.90
36374;DHT22;22399;51.346;12.372;2023-11-21T12:45:36;5.80;99.90
36374;DHT22;22399;51.346;12.372;2023-11-21T12:48:06;5.70;99.90
36374;DHT22;22399;51.346;12.372;2023-11-21T12:50:38;5.70;99.90
36374;DHT22;22399;51.346;12.372;2023-11-21T12:53:08;5.60;99.90
36374;DHT22;22399;51.346;12.372;2023-11-21T12:55:39;5.40;99.90
36374;DHT22;22399;51.346;12.372;2023-11-21T12:58:09;5.30;99.90
36374;DHT22;22399;51.346;12.372;2023-11-21T13:00:42;5.10;99.90
36374;DHT22;22399;51.346;12.372;2023-11-21T13:03:13;5.10;99.90
36374;DHT22;22399;51.346;12.372;2023-11-21T13:05:46;5.00;99.90
36374;DHT22;22399;51.346;12.372;2023-11-21T13:08:19;5.00;99.90
36374;DHT22;22399;51.346;12.372;2023-11-21T13:10:51;5.00;99.90
36374;DHT22;22399;51.346;12.372;2023-11-21T13:13:22;5.10;99.90
36374;DHT22;22399;51.346;12.372;2023-11-21T13:15:53;5.10;99.90
36374;DHT22;22399;51.346;12.372;2023-11-21T13:18:26;5.10;99.90
36374;DHT22;22399;51.346;12.372;2023-11-21T13:20:54;5.10;99.90
36374;DHT22;22399;51.346;12.372;2023-11-21T13:23:24;5.10;99.90
36374;DHT22;22399;51.346;12.372;2023-11-21T13:25:53;5.10;99.90
36374;DHT22;22399;51.346;12.372;2023-11-21T13:28:31;5.10;99.90
36374;DHT22;22399;51.346;12.372;2023-11-21T13:31:01;5.10;99.90
36374;DHT22;22399;51.346;12.372;2023-11-21T13:33:39;5.10;99.90
36374;DHT22;22399;51.346;12.372;2023-11-21T13:36:08;5.20;99.90
36374;DHT22;22399;51.346;12.372;2023-11-21T13:38:38;5.20;99.90
36374;DHT22;22399;51.346;12.372;2023-11-21T13:41:10;5.30;99.90
36374;DHT22;22399;51.346;12.372;2023-11-21T13:43:41;5.30;99.90
36374;DHT22;22399;51.346;12.372;2023-11-21T13:46:15;5.40;99.90
36374;DHT22;22399;51.346;12.372;2023-11-21T13:48:51;5.40;99.90
36374;DHT22;22399;51.346;12.372;2023-11-21T13:51:23;5.40;99.90
36374;DHT22;22399;51.346;12.372;2023-11-21T13:54:01;5.50;99.90
36374;DHT22;22399;51.346;12.372;2023-11-21T13:56:32;5.50;99.90
36374;DHT22;22399;51.346;12.372;2023-11-21T13:59:01;5.50;99.90
36374;DHT22;22399;51.346;12.372;2023-11-21T14:01:36;5.50;99.90
36374;DHT22;22399;51.346;12.372;2023-11-21T14:04:24;5.50;99.90
36374;DHT22;22399;51.346;12.372;2023-11-21T14:07:21;5.50;99.90
36374;DHT22;22399;51.346;12.372;2023-11-21T14:10:04;5.50;99.90
36374;DHT22;22399;51.346;12.372;2023-11-21T14:12:34;5.50;99.90
36374;DHT22;22399;51.346;12.372;2023-11-21T14:15:06;5.50;99.90
36374;DHT22;22399;51.346;12.372;2023-11-21T14:17:37;5.60;99.90
36374;DHT22;22399;51.346;12.372;2023-11-21T14:20:10;5.60;99.90
36374;DHT22;22399;51.346;12.372;2023-11-21T14:22:43;5.60;99.90
36374;DHT22;22399;51.346;12.372;2023-11-21T14:25:12;5.60;99.90
36374;DHT22;22399;51.346;12.372;2023-11-21T14:27:41;5.50;99.90
36374;DHT22;22399;51.346;12.372;2023-11-21T14:30:10;5.40;99.90
36374;DHT22;22399;51.346;12.372;2023-11-21T14:32:40;5.40;99.90
36374;DHT22;22399;51.346;12.372;2023-11-21T14:35:10;5.40;99.90
36374;DHT22;22399;51.346;12.372;2023-11-21T14:37:39;5.30;99.90
36374;DHT22;22399;51.346;12.372;2023-11-21T14:40:08;5.40;99.90
36374;DHT22;22399;51.346;12.372;2023-11-21T14:42:37;5.30;99.90
36374;DHT22;22399;51.346;12.372;2023-11-21T14:45:08;5.30;99.90
36374;DHT22;22399;51.346;12.372;2023-11-21T14:47:39;5.20;99.90
36374;DHT22;22399;51.346;12.372;2023-11-21T14:50:14;5.20;99.90
36374;DHT22;22399;51.346;12.372;2023-11-21T14:53:00;5.20;99.90
36374;DHT22;22399;51.346;12.372;2023-11-21T14:55:31;5.10;99.90
36374;DHT22;22399;51.346;12.372;2023-11-21T14:58:06;5.10;99.90
36374;DHT22;22399;51.346;12.372;2023-11-21T15:00:39;5.10;99.90
36374;DHT22;22399;51.346;12.372;2023-11-21T15:03:12;5.10;99.90
36374;DHT22;22399;51.346;12.372;2023-11-21T15:06:04;5.10;99.90
36374;DHT22;22399;51.346;12.372;2023-11-21T15:08:50;5.10;99.90
36374;DHT22;22399;51.346;12.372;2023-11-21T15:11:35;5.10;99.90
36374;DHT22;22399;51.346;12.372;2023-11-21T15:14:06;5.10;99.90
36374;DHT22;22399;51.346;12.372;2023-11-21T15:16:36;5.10;99.90
36374;DHT22;22399;51.346;12.372;2023-11-21T15:19:09;5.10;99.90
36374;DHT22;22399;51.346;12.372;2023-11-21T15:21:40;5.10;99.90
36374;DHT22;22399;51.346;12.372;2023-11-21T15:24:09;5.10;99.90
36374;DHT22;22399;51.346;12.372;2023-11-21T15:26:37;5.10;99.90
36374;DHT22;22399;51.346;12.372;2023-11-21T15:29:06;5.10;99.90
36374;DHT22;22399;51.346;12.372;2023-11-21T15:31:35;5.10;99.90
36374;DHT22;22399;51.346;12.372;2023-11-21T15:34:05;5.10;99.90
36374;DHT22;22399;51.346;12.372;2023-11-21T15:36:34;5.10;99.90
36374;DHT22;22399;51.346;12.372;2023-11-21T15:39:05;5.10;99.90
36374;DHT22;22399;51.346;12.372;2023-11-21T15:41:34;5.10;99.90
36374;DHT22;22399;51.346;12.372;2023-11-21T15:44:05;5.10;99.90
36374;DHT22;22399;51.346;12.372;2023-11-21T15:46:34;5.20;99.90
36374;DHT22;22399;51.346;12.372;2023-11-21T15:49:04;5.20;99.90
36374;DHT22;22399;51.346;12.372;2023-11-21T15:51:39;5.10;99.90